Hogarty, Wisconsin
Current Conditions -  °F | °C
As of 11:55 AM on Wednesday 28 Jan 2015 (Local Time) from KAIG Reporting Station
Scattered Clouds Scattered Clouds  
Wind Chill: 12°   Ceiling: Unl
Heat Index: 25°   Visibility: 10mi
Dew Point: 20°   Wind: 15mph
Humidity: 81%   Direction: 160°SSE
Pressure: 30.06"   Gusts: NA
Location:  45.0192°N, 89.2792°W
Report Text: KAIG 281755Z AUTO 16013KT 10SM SCT016 M04/M07 A3006 RMK AO2 T10401069 11040 21065
Loading
Personal Weather Stations






























Interactive Weather Map New forecast layout! Learn more

10-Day Weather Forecast

Advertisements
Track Severe Weather on mobile